Warrensburg, NY (12885)

12:01 PM EST on February 09, 2016 (GMT -0500)
Cleverdale/Sandy Bay | | Change Station
CLOSE
Current Station
Personal Weather Station
Location: Queensbury, NY
Elevation: 328 ft
Nearby Weather Stations

Elev 328 ft 43.47 °N, 73.64 °W | Updated 1 minute ago

Snow
Snow
27.5 °F
Feels Like 20 °F
N
7.3
Wind Variable Wind from SSW

Today
High -- | Low -- °F
--% Chance of Precip.
Yesterday
High -- | Low -- °F
Precip. -- in
Pressure 29.65 in
Visibility 5.0 miles
Clouds Mostly Cloudy 1500 ft
Overcast 3500 ft
Windchill 20 °F
Dew Point 20 °F
Humidity 74%
Rainfall 0.00 in
Snow Depth Not available.
7:02 AM 5:16 PM
New Moon, 2% visible
METAR KGFL 091653Z AUTO 18005KT 5SM -SN BKN015 OVC035 M03/M07 A2962 RMK AO2 SLP041 P0000 T10331072
Pressure 29.65 in
Visibility 5.0 miles
Clouds Mostly Cloudy 1500 ft
Overcast 3500 ft
Windchill 20 °F
Dew Point 20 °F
Humidity 74%
Rainfall 0.00 in
Snow Depth Not available.
7:02 AM 5:16 PM
New Moon, 2% visible
METAR KGFL 091653Z AUTO 18005KT 5SM -SN BKN015 OVC035 M03/M07 A2962 RMK AO2 SLP041 P0000 T10331072

10-Day Weather Forecast

Almanac

Astronomy

Feb. 09, 2016 Rise Set
Actual Time
Civil Twilight
Nautical Twilight
Astronomical Twilight
Moon
Length of Visible Light
Length of Day
Tomorrow will be .
, % of the Moon is Illuminated

Today's Extremes

State Highs State Lows

Community

WunderPhotos

Upload Photos

1,891,631 photos uploaded!

WunderBlog® & News

Nearby

Air Quality

  Air Quality AQ Index Pollutant
Not available.

Snow Depth

Station Depth Elevation

Earthquake Activity

City Distance Mag. Time & Date
Minimum magnitude displayed is 2.5.

Coastal Water Temperatures

Place Temperature

Stations

Nearby Weather Stations

Station Location Temp. Windchill Dew Point Humidity Wind Precip. Elev Updated Type
                   

Watches & Warnings

There are currently no watches in effect.